Time;durP1;ratioP1;P1;durP2;ratioP2;P2;SDS_P1;SDS_P2;PMS_P1;PMS_P2;Temp;Humidity;BMP_temperature;BMP_pressure;BME280_temperature;BME280_humidity;BME280_pressure;Samples;Min_cycle;Max_cycle;Signal;HPM_P1;HPM_P2
2021/09/17 00:01:22;;;;;;;9.50;8.60;;;13.10;99.90;;;;;;4815068;29;20727;-95
2021/09/17 00:03:54;;;;;;;7.77;7.07;;;13.10;99.90;;;;;;4827870;29;20239;-96
2021/09/17 00:06:19;;;;;;;8.50;7.70;;;13.10;99.90;;;;;;4833551;29;20608;-95
2021/09/17 00:08:45;;;;;;;8.13;7.43;;;13.20;99.90;;;;;;4816537;29;21057;-94
2021/09/17 00:11:14;;;;;;;8.00;7.30;;;13.20;99.90;;;;;;4818359;29;20275;-95
2021/09/17 00:13:42;;;;;;;10.30;9.30;;;13.40;99.90;;;;;;4831368;29;20231;-96
2021/09/17 06:46:56;;;;;;;9.10;8.20;;;14.90;99.90;;;;;;1092797;24;20773;-92
2021/09/17 06:49:22;;;;;;;10.67;9.60;;;14.90;99.90;;;;;;4841236;29;20816;-96
2021/09/17 06:51:50;;;;;;;9.43;8.53;;;14.90;99.90;;;;;;4844572;29;20495;-96
2021/09/17 06:54:16;;;;;;;10.57;9.40;;;14.80;99.90;;;;;;4832894;29;20498;-96
2021/09/17 06:56:41;;;;;;;11.37;10.07;;;15.00;99.90;;;;;;4841640;29;20559;-96
2021/09/17 06:59:09;;;;;;;12.20;10.90;;;15.10;99.90;;;;;;4848500;29;20195;-93
2021/09/17 07:05:06;;;;;;;10.40;9.30;;;15.30;99.90;;;;;;4824601;29;21272;-94
2021/09/17 07:07:35;;;;;;;10.57;9.60;;;15.30;99.90;;;;;;4834194;29;20495;-94
2021/09/17 07:10:02;;;;;;;10.00;9.00;;;15.30;99.90;;;;;;4827628;29;20475;-94
2021/09/17 07:12:39;;;;;;;10.43;9.40;;;15.30;99.90;;;;;;4830076;29;20491;-94
2021/09/17 07:22:54;;;;;;;10.57;9.57;;;15.40;99.90;;;;;;4981949;24;20492;-95
2021/09/17 07:25:37;;;;;;;10.27;9.20;;;15.40;99.90;;;;;;4825759;29;20461;-95
2021/09/17 07:33:45;;;;;;;;;;;;;;;;;;;;;
2021/09/17 07:36:10;;;;;;;10.00;9.07;;;15.80;99.90;;;;;;4817765;29;20537;-93
2021/09/17 07:39:24;;;;;;;9.33;8.53;;;15.80;99.90;;;;;;4819399;29;20489;-94
2021/09/17 07:41:50;;;;;;;10.53;9.50;;;15.90;99.90;;;;;;4815496;29;20210;-94
2021/09/17 07:44:16;;;;;;;10.03;9.03;;;15.90;99.90;;;;;;4814307;29;20473;-95
2021/09/17 07:46:47;;;;;;;9.37;8.47;;;16.00;99.90;;;;;;4809299;29;20196;-94
2021/09/17 07:49:14;;;;;;;10.23;9.23;;;16.00;99.90;;;;;;4815011;29;20507;-95
2021/09/17 07:51:45;;;;;;;11.87;9.57;;;15.90;99.90;;;;;;4811383;29;20204;-96
2021/09/17 07:54:13;;;;;;;9.43;8.47;;;15.90;99.90;;;;;;4834307;29;20526;-95
2021/09/17 07:56:40;;;;;;;9.47;8.67;;;15.80;99.90;;;;;;4817024;29;20986;-94
2021/09/17 07:59:06;;;;;;;11.03;8.93;;;15.90;99.90;;;;;;4808896;29;20469;-94
2021/09/17 08:01:32;;;;;;;10.33;9.33;;;16.10;99.90;;;;;;4823609;29;20607;-95
2021/09/17 08:03:57;;;;;;;10.50;8.90;;;16.30;99.90;;;;;;4806055;29;20215;-96
2021/09/17 08:06:25;;;;;;;9.30;8.13;;;16.40;99.90;;;;;;4809800;29;20506;-95
2021/09/17 08:08:51;;;;;;;10.20;9.00;;;16.40;99.90;;;;;;4809163;29;20188;-95
2021/09/17 08:11:24;;;;;;;9.00;8.10;;;16.40;99.90;;;;;;4811357;29;20456;-95
2021/09/17 08:13:55;;;;;;;10.13;9.20;;;16.40;99.90;;;;;;4828222;29;20230;-96
2021/09/17 08:16:34;;;;;;;9.40;8.57;;;16.70;99.90;;;;;;4813309;29;20451;-96
2021/09/17 08:19:29;;;;;;;10.17;9.17;;;17.00;99.90;;;;;;4819529;29;20461;-96
2021/09/17 08:21:58;;;;;;;9.23;8.43;;;17.10;99.90;;;;;;4794020;29;20484;-95
2021/09/17 08:24:24;;;;;;;11.03;8.80;;;17.30;99.90;;;;;;4806873;29;20565;-92
2021/09/17 08:26:52;;;;;;;9.27;8.20;;;17.40;99.90;;;;;;4805550;29;20469;-92
2021/09/17 08:30:00;;;;;;;10.80;9.20;;;17.40;99.90;;;;;;4812580;29;20558;-93
2021/09/17 08:32:43;;;;;;;10.73;9.50;;;17.20;99.90;;;;;;4809833;29;20473;-94
2021/09/17 08:36:07;;;;;;;10.47;9.37;;;17.20;99.90;;;;;;4807511;29;20518;-94
2021/09/17 08:42:07;;;;;;;9.20;8.40;;;17.50;99.90;;;;;;4811852;29;20463;-96
2021/09/17 08:44:33;;;;;;;8.80;7.90;;;17.30;99.90;;;;;;4812087;29;20889;-96
2021/09/17 08:47:01;;;;;;;9.20;8.33;;;17.40;99.90;;;;;;4812352;29;20512;-92
2021/09/17 09:21:06;;;;;;;10.43;9.50;;;18.40;99.90;;;;;;4810964;29;20497;-96
2021/09/17 09:23:40;;;;;;;10.20;9.20;;;18.50;99.90;;;;;;4818049;29;20499;-96
2021/09/17 11:56:17;;;;;;;2.60;2.40;;;21.30;89.90;;;;;;4841174;29;20498;-96
2021/09/17 11:59:06;;;;;;;2.70;2.50;;;20.90;86.50;;;;;;4838580;29;20459;-96
2021/09/17 12:01:34;;;;;;;2.50;2.40;;;20.30;88.40;;;;;;4838053;29;20518;-95
2021/09/17 12:04:03;;;;;;;2.40;2.20;;;20.40;89.50;;;;;;4836461;29;20523;-95
2021/09/17 12:06:33;;;;;;;2.97;2.77;;;20.20;89.50;;;;;;4837889;29;20685;-96
2021/09/17 12:08:59;;;;;;;2.73;2.53;;;20.70;92.10;;;;;;4843986;29;20451;-95
2021/09/17 12:14:42;;;;;;;2.97;2.73;;;21.40;90.90;;;;;;4838978;29;20503;-96
2021/09/17 12:17:21;;;;;;;2.80;2.60;;;21.30;90.60;;;;;;4843726;29;20458;-96
2021/09/17 12:20:54;;;;;;;2.77;2.57;;;21.40;91.00;;;;;;4841699;29;20494;-96
2021/09/17 12:41:28;;;;;;;3.10;2.90;;;23.00;88.00;;;;;;4813586;29;20850;-90
2021/09/17 12:44:18;;;;;;;2.60;2.50;;;23.20;87.50;;;;;;4811559;29;20537;-90
2021/09/17 12:53:46;;;;;;;3.27;2.80;;;23.00;82.80;;;;;;4779061;29;20537;-91
2021/09/17 12:57:01;;;;;;;3.47;3.17;;;22.20;87.90;;;;;;4808124;29;20972;-92
2021/09/17 12:59:27;;;;;;;2.80;2.70;;;22.50;91.00;;;;;;4827229;29;20454;-90
2021/09/17 13:01:53;;;;;;;3.07;2.77;;;22.70;85.90;;;;;;4809184;29;20476;-92
2021/09/17 13:07:21;;;;;;;6.00;3.47;;;22.20;90.40;;;;;;4807378;29;20288;-92
2021/09/17 13:09:47;;;;;;;3.23;2.97;;;21.50;88.30;;;;;;4809652;29;20801;-92
2021/09/17 13:12:13;;;;;;;3.47;3.27;;;22.00;90.40;;;;;;4809358;29;20824;-92
2021/09/17 13:15:04;;;;;;;;;;;;;;;;;;;;;
2021/09/17 13:17:33;;;;;;;3.50;3.30;;;22.30;86.80;;;;;;4813146;29;20697;-91
2021/09/17 13:20:41;;;;;;;3.30;3.10;;;21.80;87.50;;;;;;4814979;29;21006;-91
2021/09/17 13:23:18;;;;;;;3.80;3.50;;;21.90;88.00;;;;;;4798784;29;20503;-92
2021/09/17 13:25:44;;;;;;;3.70;3.27;;;22.30;89.50;;;;;;4807949;29;20484;-91
2021/09/17 13:28:15;;;;;;;4.33;3.13;;;22.30;88.80;;;;;;4803173;29;20200;-86
2021/09/17 13:30:43;;;;;;;5.93;3.10;;;22.40;89.10;;;;;;4825096;29;20497;-88
2021/09/17 13:33:10;;;;;;;3.00;2.80;;;21.90;88.10;;;;;;4805062;29;20545;-90
2021/09/17 13:35:43;;;;;;;3.20;3.00;;;22.00;90.60;;;;;;4806260;29;20498;-90
2021/09/17 18:01:45;;;;;;;5.23;4.07;;;14.60;99.90;;;;;;503948;27;20777;-89
2021/09/17 18:04:11;;;;;;;4.30;3.90;;;14.60;99.90;;;;;;4816552;29;20566;-89
2021/09/17 18:06:37;;;;;;;4.80;4.40;;;14.50;99.90;;;;;;4814993;29;20456;-90
2021/09/17 18:09:04;;;;;;;5.60;4.70;;;14.50;99.90;;;;;;4819710;29;21042;-89
2021/09/17 18:11:29;;;;;;;6.33;4.57;;;14.50;99.90;;;;;;4820573;29;20200;-89
2021/09/17 18:13:56;;;;;;;4.07;3.77;;;14.30;99.90;;;;;;4821597;29;20499;-91
2021/09/17 18:16:22;;;;;;;5.20;4.50;;;14.40;99.90;;;;;;4817929;29;20693;-91
2021/09/17 18:18:54;;;;;;;5.37;4.43;;;14.30;99.90;;;;;;4821066;29;20456;-90
2021/09/17 18:21:22;;;;;;;4.50;4.10;;;14.40;99.90;;;;;;4822100;29;20201;-90
2021/09/17 18:23:51;;;;;;;4.43;4.13;;;14.30;99.90;;;;;;4820498;29;20467;-88
2021/09/17 18:26:16;;;;;;;4.23;3.80;;;14.20;99.90;;;;;;4814735;29;20441;-87
2021/09/17 18:28:50;;;;;;;4.20;3.90;;;14.20;99.90;;;;;;4813894;29;20509;-87
2021/09/17 18:31:22;;;;;;;4.53;4.23;;;14.10;99.90;;;;;;4814261;29;20237;-88
2021/09/17 18:33:54;;;;;;;4.57;4.20;;;14.10;99.90;;;;;;4824976;29;20491;-87
2021/09/17 18:36:19;;;;;;;4.60;4.20;;;14.10;99.90;;;;;;4816552;29;20452;-88
2021/09/17 18:38:45;;;;;;;5.00;4.70;;;14.00;99.90;;;;;;4817570;29;20838;-88
2021/09/17 18:41:11;;;;;;;4.40;4.10;;;13.80;99.90;;;;;;4821361;29;20197;-89
2021/09/17 18:43:37;;;;;;;4.60;4.20;;;13.80;99.90;;;;;;4816140;29;20483;-88
2021/09/17 18:46:03;;;;;;;5.20;4.80;;;13.80;99.90;;;;;;4813897;29;20922;-88
2021/09/17 18:48:29;;;;;;;4.93;4.33;;;13.70;99.90;;;;;;4805951;29;20543;-88
2021/09/17 18:50:55;;;;;;;4.80;4.40;;;13.50;99.90;;;;;;4819009;29;20449;-88
2021/09/17 18:53:21;;;;;;;5.30;4.80;;;13.60;99.90;;;;;;4816606;29;20552;-89
2021/09/17 18:55:49;;;;;;;5.60;4.47;;;13.50;99.90;;;;;;4831820;29;20286;-89
2021/09/17 18:58:19;;;;;;;4.83;4.30;;;13.50;99.90;;;;;;4820513;29;20543;-89
2021/09/17 19:03:17;;;;;;;5.40;5.00;;;13.40;99.90;;;;;;4817653;29;20254;-90
2021/09/17 19:05:43;;;;;;;5.30;4.90;;;13.40;99.90;;;;;;4813050;29;20471;-89
2021/09/17 19:08:09;;;;;;;5.33;4.80;;;13.40;99.90;;;;;;4817580;29;20449;-88
2021/09/17 19:10:36;;;;;;;4.60;4.30;;;13.40;99.90;;;;;;4815012;29;20960;-88
2021/09/17 19:13:05;;;;;;;4.70;4.30;;;13.30;99.90;;;;;;4814863;29;20951;-89
2021/09/17 19:15:34;;;;;;;5.17;4.77;;;13.30;99.90;;;;;;4814455;29;20944;-89
2021/09/17 19:18:33;;;;;;;6.10;5.33;;;13.20;99.90;;;;;;4822231;29;20451;-89
2021/09/17 19:20:59;;;;;;;5.33;4.90;;;13.10;99.90;;;;;;4809262;29;20561;-89
2021/09/17 19:23:37;;;;;;;6.97;5.43;;;13.10;99.90;;;;;;4819427;29;21065;-92
2021/09/17 19:26:07;;;;;;;5.20;4.80;;;13.10;99.90;;;;;;4820004;29;20207;-89
2021/09/17 19:28:39;;;;;;;5.90;5.50;;;13.10;99.90;;;;;;4820597;29;20439;-91
2021/09/17 19:31:08;;;;;;;4.93;4.53;;;13.10;99.90;;;;;;4820416;29;20642;-89
2021/09/17 19:33:38;;;;;;;4.50;4.20;;;13.10;99.90;;;;;;4818109;29;20658;-90
2021/09/17 19:36:04;;;;;;;5.20;4.80;;;13.00;99.90;;;;;;4824584;29;20802;-95
2021/09/17 19:38:30;;;;;;;5.03;4.43;;;13.00;99.90;;;;;;4817625;29;20837;-94
2021/09/17 19:40:56;;;;;;;5.00;4.60;;;13.00;99.90;;;;;;4829846;29;20203;-92
2021/09/17 19:43:21;;;;;;;6.20;4.80;;;13.00;99.90;;;;;;4836518;29;20513;-92
2021/09/17 19:45:51;;;;;;;5.93;4.57;;;12.90;99.90;;;;;;4828004;29;20202;-94
2021/09/17 19:48:19;;;;;;;5.63;5.23;;;12.90;99.90;;;;;;4816461;29;20250;-90
2021/09/17 19:51:00;;;;;;;5.33;4.93;;;12.90;99.90;;;;;;4814067;29;20471;-89
2021/09/17 19:53:50;;;;;;;8.60;5.10;;;12.80;99.90;;;;;;4813771;29;20868;-88
2021/09/17 19:56:24;;;;;;;4.83;4.50;;;12.70;99.90;;;;;;4822290;29;20448;-88
2021/09/17 19:58:54;;;;;;;5.60;5.10;;;12.70;99.90;;;;;;4823667;29;20809;-88
2021/09/17 20:01:32;;;;;;;4.93;4.53;;;12.70;99.90;;;;;;4816636;29;20467;-87
2021/09/17 20:04:09;;;;;;;5.67;5.17;;;12.60;99.90;;;;;;4812228;29;20214;-88
2021/09/17 20:06:50;;;;;;;5.80;5.20;;;12.50;99.90;;;;;;4820134;29;20980;-86
2021/09/17 20:09:36;;;;;;;6.63;6.03;;;12.50;99.90;;;;;;4812634;29;20451;-87
2021/09/17 20:12:06;;;;;;;7.47;6.87;;;12.40;99.90;;;;;;4829216;29;20515;-88
2021/09/17 20:14:35;;;;;;;6.90;6.33;;;12.50;99.90;;;;;;4817840;29;20495;-88
2021/09/17 20:17:07;;;;;;;5.90;5.40;;;12.50;99.90;;;;;;4817969;29;20792;-88
2021/09/17 20:19:45;;;;;;;6.17;5.70;;;12.50;99.90;;;;;;4822298;29;20464;-87
2021/09/17 20:25:00;;;;;;;5.47;4.60;;;12.60;99.90;;;;;;4821911;29;21037;-86
2021/09/17 20:27:27;;;;;;;6.17;5.67;;;12.50;99.90;;;;;;4824049;29;20798;-88
2021/09/17 20:29:59;;;;;;;6.73;6.03;;;12.50;99.90;;;;;;4813288;29;20468;-90
2021/09/17 20:35:18;;;;;;;5.20;4.80;;;12.50;99.90;;;;;;4818842;29;20484;-86
2021/09/17 20:37:48;;;;;;;5.93;5.53;;;12.30;99.90;;;;;;4811816;29;20491;-86
2021/09/17 20:40:18;;;;;;;6.27;5.77;;;12.30;99.90;;;;;;4819299;29;20465;-87
2021/09/17 20:42:44;;;;;;;5.93;5.40;;;12.20;99.90;;;;;;4814219;29;20593;-87
2021/09/17 20:45:14;;;;;;;7.07;6.47;;;12.20;99.90;;;;;;4815812;29;20566;-86
2021/09/17 20:47:40;;;;;;;6.67;6.07;;;12.20;99.90;;;;;;4818556;29;20474;-87
2021/09/17 20:50:21;;;;;;;7.20;6.70;;;12.30;99.90;;;;;;4815191;29;20464;-88
2021/09/17 20:52:47;;;;;;;7.07;6.57;;;12.30;99.90;;;;;;4823700;29;20578;-87
2021/09/17 20:55:15;;;;;;;6.20;5.70;;;12.30;99.90;;;;;;4817433;29;20444;-87
2021/09/17 20:57:41;;;;;;;8.80;7.93;;;12.50;99.90;;;;;;4815636;29;20461;-87
2021/09/17 21:00:08;;;;;;;11.33;10.30;;;12.60;99.90;;;;;;4820809;29;20925;-87
2021/09/17 21:02:34;;;;;;;14.47;12.97;;;12.70;99.90;;;;;;4816103;29;20521;-88
2021/09/17 21:05:08;;;;;;;12.30;11.30;;;12.80;99.90;;;;;;4817152;29;20483;-87
2021/09/17 21:07:43;;;;;;;14.20;13.10;;;12.70;99.90;;;;;;4817289;29;20456;-88
2021/09/17 21:10:12;;;;;;;12.83;11.77;;;12.70;99.90;;;;;;4836195;29;21736;-88
2021/09/17 21:12:38;;;;;;;10.23;9.43;;;12.70;99.90;;;;;;4823434;29;20468;-88
2021/09/17 21:15:12;;;;;;;10.37;9.47;;;12.60;99.90;;;;;;4824282;29;20481;-90
2021/09/17 21:17:55;;;;;;;8.60;7.90;;;12.50;99.90;;;;;;4828543;29;20495;-90
2021/09/17 21:20:49;;;;;;;8.30;7.37;;;12.40;99.90;;;;;;4822129;29;20460;-91
2021/09/17 21:23:32;;;;;;;6.70;6.10;;;12.30;99.90;;;;;;4824164;29;20443;-91
2021/09/17 21:26:14;;;;;;;10.77;9.80;;;12.20;99.90;;;;;;4826821;29;20956;-91
2021/09/17 21:28:43;;;;;;;12.60;11.40;;;12.30;99.90;;;;;;4826829;29;20835;-92
2021/09/17 21:31:12;;;;;;;12.07;10.87;;;12.50;99.90;;;;;;4823725;29;20794;-91
2021/09/17 21:33:38;;;;;;;12.30;11.20;;;12.50;99.90;;;;;;4826891;29;20512;-91
2021/09/17 21:36:04;;;;;;;11.80;10.80;;;12.70;99.90;;;;;;4824621;29;20436;-91
2021/09/17 21:38:30;;;;;;;10.37;9.30;;;12.60;99.90;;;;;;4831283;29;20460;-91
2021/09/17 21:40:56;;;;;;;10.60;9.60;;;12.50;99.90;;;;;;4820687;29;20439;-93
2021/09/17 21:43:22;;;;;;;8.90;8.03;;;12.40;99.90;;;;;;4831493;29;20211;-93
2021/09/17 21:45:54;;;;;;;9.10;8.40;;;12.40;99.90;;;;;;4829469;29;20205;-92
2021/09/17 21:48:36;;;;;;;8.13;7.33;;;12.40;99.90;;;;;;4822983;29;20464;-93
2021/09/17 21:51:01;;;;;;;9.67;7.57;;;12.30;99.90;;;;;;4823958;29;20509;-93
2021/09/17 21:53:27;;;;;;;10.70;9.80;;;12.20;99.90;;;;;;4822868;29;20214;-91
2021/09/17 21:55:53;;;;;;;10.10;9.20;;;12.10;99.90;;;;;;4821260;29;20196;-94
2021/09/17 21:58:24;;;;;;;9.50;8.60;;;11.90;99.90;;;;;;4823625;29;20543;-91
2021/09/17 22:01:03;;;;;;;8.93;8.13;;;11.90;99.90;;;;;;4840838;29;20227;-92
2021/09/17 22:03:35;;;;;;;9.47;8.50;;;11.70;99.90;;;;;;4825052;29;20488;-91
2021/09/17 22:06:02;;;;;;;8.23;7.53;;;11.70;99.90;;;;;;4823094;29;20509;-92
2021/09/17 22:08:31;;;;;;;8.23;7.33;;;11.70;99.90;;;;;;4824274;29;20489;-92
2021/09/17 22:10:57;;;;;;;9.27;8.47;;;11.60;99.90;;;;;;4824705;29;20538;-92
2021/09/17 22:13:24;;;;;;;9.80;8.77;;;11.50;99.90;;;;;;4823986;29;20556;-92
2021/09/17 22:15:54;;;;;;;9.50;8.60;;;11.40;99.90;;;;;;4822409;29;20474;-92
2021/09/17 22:18:23;;;;;;;9.53;8.73;;;11.40;99.90;;;;;;4827580;29;20543;-93
2021/09/17 22:20:49;;;;;;;9.03;8.23;;;11.40;99.90;;;;;;4823049;29;20436;-94
2021/09/17 22:23:15;;;;;;;10.70;8.33;;;11.50;99.90;;;;;;4824091;29;20452;-95
2021/09/17 22:25:41;;;;;;;9.97;8.97;;;11.50;99.90;;;;;;4825885;29;20448;-95
2021/09/17 22:28:11;;;;;;;9.50;8.60;;;11.50;99.90;;;;;;4827733;29;20195;-94
2021/09/17 22:30:37;;;;;;;9.10;8.37;;;11.40;99.90;;;;;;4826587;29;20487;-93
2021/09/17 22:33:03;;;;;;;10.83;9.00;;;11.50;99.90;;;;;;4822460;29;20902;-92
2021/09/17 22:35:32;;;;;;;8.90;8.10;;;11.40;99.90;;;;;;4821942;29;20532;-92
2021/09/17 22:37:57;;;;;;;8.53;7.83;;;11.30;99.90;;;;;;4824870;29;20449;-93
2021/09/17 22:40:23;;;;;;;9.47;8.47;;;11.40;99.90;;;;;;4825861;29;20443;-93
2021/09/17 22:42:49;;;;;;;10.47;8.43;;;11.50;99.90;;;;;;4827527;29;20184;-93
2021/09/17 22:45:15;;;;;;;9.07;8.37;;;11.50;99.90;;;;;;4835602;29;20199;-93
2021/09/17 22:47:41;;;;;;;9.97;9.07;;;11.60;99.90;;;;;;4819423;29;20484;-93
2021/09/17 22:50:08;;;;;;;10.10;9.10;;;11.60;99.90;;;;;;4822077;29;20452;-93
2021/09/17 22:52:35;;;;;;;8.47;7.77;;;11.60;99.90;;;;;;4822012;29;20475;-94
2021/09/17 22:55:05;;;;;;;10.23;7.90;;;11.50;99.90;;;;;;4822588;29;20521;-92
2021/09/17 22:57:34;;;;;;;8.90;8.00;;;11.50;99.90;;;;;;4820437;29;20467;-93
2021/09/17 23:00:13;;;;;;;8.40;7.70;;;11.30;99.90;;;;;;4820374;29;21117;-93
2021/09/17 23:03:37;;;;;;;8.07;7.37;;;11.10;99.90;;;;;;4825923;29;20487;-94
2021/09/17 23:06:27;;;;;;;8.43;7.43;;;11.10;99.90;;;;;;4822470;29;20465;-93
2021/09/17 23:09:15;;;;;;;8.70;7.90;;;11.10;99.90;;;;;;4826422;29;20452;-92
2021/09/17 23:11:41;;;;;;;8.53;7.70;;;11.10;99.90;;;;;;4826049;29;20868;-92
2021/09/17 23:14:10;;;;;;;7.70;7.00;;;11.10;99.90;;;;;;4816335;29;20565;-92
2021/09/17 23:16:35;;;;;;;8.67;7.77;;;11.10;99.90;;;;;;4822230;29;20210;-92
2021/09/17 23:19:14;;;;;;;7.77;7.07;;;11.20;99.90;;;;;;4821735;29;20467;-91
2021/09/17 23:24:21;;;;;;;9.87;8.97;;;11.30;99.90;;;;;;4825071;29;20435;-90
2021/09/17 23:26:56;;;;;;;9.57;8.70;;;11.20;99.90;;;;;;4816486;29;20922;-90
2021/09/17 23:29:31;;;;;;;9.87;8.97;;;11.30;99.90;;;;;;4818686;29;20451;-91
2021/09/17 23:32:04;;;;;;;8.97;8.13;;;11.20;99.90;;;;;;4826887;29;20564;-90
2021/09/17 23:34:37;;;;;;;9.47;8.67;;;11.30;99.90;;;;;;4816453;29;20881;-90
2021/09/17 23:37:06;;;;;;;10.40;9.50;;;11.30;99.90;;;;;;4817893;29;20441;-90
2021/09/17 23:39:37;;;;;;;11.63;10.53;;;11.20;99.90;;;;;;4819853;29;20472;-91
2021/09/17 23:42:07;;;;;;;12.50;11.30;;;11.20;99.90;;;;;;4817547;29;20457;-90
2021/09/17 23:44:39;;;;;;;11.40;10.20;;;11.20;99.90;;;;;;4821410;29;21742;-90
2021/09/17 23:47:08;;;;;;;10.80;9.80;;;11.10;99.90;;;;;;4824395;29;20456;-90
2021/09/17 23:49:38;;;;;;;9.37;8.47;;;11.20;99.90;;;;;;4825740;29;20556;-91
2021/09/17 23:52:04;;;;;;;9.20;8.40;;;11.20;99.90;;;;;;4830099;29;20452;-91
2021/09/17 23:54:37;;;;;;;10.60;9.60;;;11.20;99.90;;;;;;4823578;29;21259;-91
2021/09/17 23:57:06;;;;;;;9.93;8.90;;;11.10;99.90;;;;;;4819837;29;20463;-90
2021/09/17 23:59:37;;;;;;;9.50;8.60;;;11.20;99.90;;;;;;4824143;29;20841;-91
